createdAt,value
2023-03-22T00:02:11.766Z,13.10
2023-03-22T00:05:03.895Z,12.00
2023-03-22T00:07:58.044Z,11.10
2023-03-22T00:10:50.485Z,12.20
2023-03-22T00:13:43.992Z,13.00
2023-03-22T00:16:36.485Z,13.90
2023-03-22T00:19:33.996Z,13.90
2023-03-22T00:22:26.475Z,14.50
2023-03-22T00:25:18.600Z,15.90
2023-03-22T00:28:11.288Z,15.80
2023-03-22T00:31:05.150Z,15.90
2023-03-22T00:33:57.625Z,15.00
2023-03-22T00:36:49.630Z,13.80
2023-03-22T00:39:41.872Z,13.30
2023-03-22T00:42:33.599Z,15.50
2023-03-22T00:45:25.846Z,15.00
2023-03-22T00:48:17.542Z,15.80
2023-03-22T00:51:10.252Z,14.00
2023-03-22T00:54:02.282Z,15.70
2023-03-22T00:56:54.660Z,15.00
2023-03-22T00:59:48.439Z,14.60
2023-03-22T01:02:41.667Z,14.10
2023-03-22T01:05:35.848Z,14.00
2023-03-22T01:08:33.541Z,13.30
2023-03-22T01:11:26.588Z,13.70
2023-03-22T01:14:19.577Z,12.70
2023-03-22T01:17:11.369Z,12.20
2023-03-22T01:20:04.911Z,11.40
2023-03-22T01:22:56.525Z,9.90
2023-03-22T01:25:48.446Z,9.30
2023-03-22T01:28:40.765Z,10.50
2023-03-22T01:31:32.567Z,9.30
2023-03-22T01:34:24.670Z,10.60
2023-03-22T01:37:17.518Z,10.80
2023-03-22T01:40:13.224Z,10.90
2023-03-22T01:43:13.395Z,10.80
2023-03-22T01:46:06.940Z,10.30
2023-03-22T01:48:59.523Z,10.90
2023-03-22T01:51:55.749Z,10.20
2023-03-22T01:55:13.865Z,10.30
2023-03-22T01:58:09.785Z,8.60
2023-03-22T02:01:23.234Z,8.60
2023-03-22T02:04:23.521Z,8.70
2023-03-22T02:07:26.645Z,8.60
2023-03-22T02:10:26.533Z,8.30
2023-03-22T02:13:48.108Z,8.00
2023-03-22T02:17:01.786Z,9.00
2023-03-22T02:20:17.729Z,10.50
2023-03-22T02:23:46.229Z,9.60
2023-03-22T02:27:06.656Z,9.60
2023-03-22T02:30:16.904Z,9.40
2023-03-22T02:33:14.901Z,9.20
2023-03-22T02:36:19.761Z,9.90
2023-03-22T02:39:17.716Z,9.40
2023-03-22T02:45:20.599Z,9.60
2023-03-22T02:48:36.089Z,10.00
2023-03-22T02:51:55.724Z,10.00
2023-03-22T02:55:13.780Z,9.90
2023-03-22T02:58:26.690Z,11.50
2023-03-22T03:02:10.706Z,9.90
2023-03-22T03:04:46.644Z,10.20
2023-03-22T03:07:19.784Z,9.80
2023-03-22T03:09:49.161Z,10.00
2023-03-22T03:12:23.680Z,9.80
2023-03-22T03:14:52.662Z,9.80
2023-03-22T03:17:51.719Z,10.30
2023-03-22T03:20:46.654Z,10.80
2023-03-22T03:23:37.776Z,10.90
2023-03-22T03:26:46.529Z,11.80
2023-03-22T03:29:32.122Z,10.50
2023-03-22T03:32:35.330Z,11.40
2023-03-22T03:35:22.516Z,10.70
2023-03-22T03:38:03.535Z,10.30
2023-03-22T03:40:36.573Z,10.90
2023-03-22T03:43:07.152Z,10.10
2023-03-22T03:45:37.054Z,11.10
2023-03-22T03:48:12.019Z,11.10
2023-03-22T03:50:40.587Z,10.90
2023-03-22T03:53:11.525Z,10.10
2023-03-22T03:55:39.904Z,10.40
2023-03-22T03:58:09.613Z,9.60
2023-03-22T04:00:38.630Z,10.40
2023-03-22T04:03:19.772Z,9.80
2023-03-22T04:06:13.998Z,8.30
2023-03-22T04:08:46.517Z,8.10
2023-03-22T04:11:16.094Z,8.80
2023-03-22T04:13:44.303Z,8.20
2023-03-22T04:16:15.724Z,8.50
2023-03-22T04:18:44.411Z,7.90
2023-03-22T04:21:13.957Z,8.40
2023-03-22T04:23:48.455Z,8.00
2023-03-22T04:26:16.869Z,8.50
2023-03-22T04:28:56.827Z,8.80
2023-03-22T04:31:25.989Z,9.00
2023-03-22T04:34:05.904Z,9.90
2023-03-22T04:36:54.498Z,12.20
2023-03-22T04:39:46.844Z,14.50
2023-03-22T04:42:25.440Z,12.90
2023-03-22T04:45:04.142Z,14.30
2023-03-22T04:47:32.788Z,12.80
2023-03-22T04:50:01.692Z,13.00
2023-03-22T04:52:30.563Z,11.70
2023-03-22T04:54:58.566Z,11.00
2023-03-22T04:57:26.901Z,12.10
2023-03-22T04:59:54.794Z,11.50
2023-03-22T05:02:23.004Z,11.10
2023-03-22T05:04:51.494Z,9.10
2023-03-22T05:07:31.586Z,9.70
2023-03-22T05:10:01.419Z,9.90
2023-03-22T05:12:29.916Z,8.80
2023-03-22T05:15:11.592Z,9.50
2023-03-22T05:17:39.746Z,8.90
2023-03-22T05:20:10.102Z,8.70
2023-03-22T05:22:41.058Z,9.80
2023-03-22T05:25:11.722Z,9.20
2023-03-22T05:27:42.491Z,9.30
2023-03-22T05:30:32.304Z,9.00
2023-03-22T05:33:05.405Z,9.70
2023-03-22T05:35:41.985Z,8.80
2023-03-22T05:38:11.795Z,9.10
2023-03-22T05:40:45.497Z,8.90
2023-03-22T05:43:15.667Z,8.20
2023-03-22T05:45:48.348Z,9.30
2023-03-22T05:48:43.019Z,7.90
2023-03-22T05:51:19.769Z,8.20
2023-03-22T05:53:51.825Z,7.60
2023-03-22T05:56:24.876Z,8.00
2023-03-22T05:59:01.500Z,7.70
2023-03-22T06:01:29.738Z,8.50
2023-03-22T06:04:15.937Z,8.20
2023-03-22T06:07:07.737Z,8.10
2023-03-22T06:09:42.699Z,7.90
2023-03-22T06:12:15.605Z,7.10
2023-03-22T06:14:45.516Z,5.80
2023-03-22T06:17:22.137Z,6.30
2023-03-22T06:19:53.054Z,6.80
2023-03-22T06:22:23.464Z,6.80
2023-03-22T06:24:51.549Z,7.30
2023-03-22T06:27:26.461Z,7.10
2023-03-22T06:29:54.979Z,7.20
2023-03-22T06:32:26.748Z,7.30
2023-03-22T06:34:56.093Z,7.40
2023-03-22T06:37:26.229Z,8.40
2023-03-22T06:39:55.393Z,8.50
2023-03-22T06:42:26.070Z,8.40
2023-03-22T06:45:03.642Z,9.00
2023-03-22T06:47:35.039Z,8.60
2023-03-22T06:50:14.847Z,8.90
2023-03-22T06:52:56.657Z,13.10
2023-03-22T06:55:25.354Z,13.20
2023-03-22T06:57:53.477Z,14.10
2023-03-22T07:00:22.605Z,13.50
2023-03-22T07:02:52.678Z,14.60
2023-03-22T07:05:29.296Z,16.40
2023-03-22T07:07:57.577Z,15.70
2023-03-22T07:10:26.596Z,13.40
2023-03-22T07:12:54.849Z,12.50
2023-03-22T07:15:24.881Z,12.90
2023-03-22T07:18:02.303Z,12.20
2023-03-22T07:20:33.084Z,12.90
2023-03-22T07:23:01.713Z,12.10
2023-03-22T07:25:33.043Z,12.10
2023-03-22T07:28:15.016Z,12.60
2023-03-22T07:30:43.396Z,12.10
2023-03-22T07:33:12.266Z,13.10
2023-03-22T07:35:41.470Z,13.50
2023-03-22T07:38:09.767Z,11.60
2023-03-22T07:40:38.052Z,12.70
2023-03-22T07:43:07.026Z,12.60
2023-03-22T07:45:55.526Z,13.10
2023-03-22T07:48:41.981Z,15.60
2023-03-22T07:51:30.015Z,14.30
2023-03-22T07:54:02.765Z,14.30
2023-03-22T07:56:31.913Z,16.30
2023-03-22T07:59:00.442Z,15.20
2023-03-22T08:01:28.811Z,14.00
2023-03-22T08:04:21.055Z,14.90
2023-03-22T08:06:58.832Z,13.50
2023-03-22T08:09:28.646Z,13.60
2023-03-22T08:11:57.262Z,14.60
2023-03-22T08:14:36.032Z,14.90
2023-03-22T08:17:06.819Z,14.90
2023-03-22T08:19:35.612Z,15.80
2023-03-22T08:22:03.912Z,18.00
2023-03-22T08:25:01.286Z,18.20
2023-03-22T08:27:32.766Z,19.20
2023-03-22T08:30:02.575Z,15.00
2023-03-22T08:32:34.300Z,14.20
2023-03-22T08:35:06.567Z,13.30
2023-03-22T08:37:34.681Z,15.50
2023-03-22T08:40:07.446Z,16.20
2023-03-22T08:42:39.991Z,14.50
2023-03-22T08:45:10.402Z,14.20
2023-03-22T08:47:44.782Z,12.80
2023-03-22T08:50:13.546Z,13.00
2023-03-22T08:52:53.791Z,13.30
2023-03-22T08:55:31.674Z,12.70
2023-03-22T08:58:16.650Z,13.30
2023-03-22T09:01:04.429Z,13.10
2023-03-22T09:03:40.986Z,11.80
2023-03-22T09:06:13.595Z,11.40
2023-03-22T09:08:42.141Z,14.50
2023-03-22T09:11:13.549Z,12.90
2023-03-22T09:13:43.127Z,10.90
2023-03-22T09:16:11.752Z,10.50
2023-03-22T09:18:41.148Z,9.50
2023-03-22T09:21:12.718Z,9.10
2023-03-22T09:23:47.973Z,10.60
2023-03-22T09:26:17.021Z,10.00
2023-03-22T09:28:47.894Z,8.20
2023-03-22T09:31:18.502Z,8.80
2023-03-22T09:33:48.551Z,8.80
2023-03-22T09:36:16.773Z,8.00
2023-03-22T09:38:46.736Z,7.90
2023-03-22T09:41:27.247Z,7.40
2023-03-22T09:43:59.746Z,7.80
2023-03-22T09:46:36.017Z,7.80
2023-03-22T09:49:08.270Z,7.90
2023-03-22T09:51:44.440Z,7.10
2023-03-22T09:54:29.407Z,7.50
2023-03-22T09:57:08.288Z,7.00
2023-03-22T09:59:57.150Z,6.50
2023-03-22T10:03:14.655Z,5.90
2023-03-22T10:05:57.628Z,7.00
2023-03-22T10:08:36.754Z,7.30
2023-03-22T10:11:16.180Z,6.20
2023-03-22T10:14:23.608Z,5.80
2023-03-22T10:16:56.486Z,6.50
2023-03-22T10:19:31.252Z,9.80
2023-03-22T10:22:02.457Z,6.00
2023-03-22T10:24:34.546Z,5.20
2023-03-22T10:27:03.167Z,5.70
2023-03-22T10:29:44.613Z,4.90
2023-03-22T10:32:17.363Z,4.90
2023-03-22T10:34:46.785Z,5.70
2023-03-22T10:37:22.469Z,5.30
2023-03-22T10:39:55.915Z,5.60
2023-03-22T10:42:26.568Z,4.70
2023-03-22T10:44:54.511Z,4.80
2023-03-22T10:47:49.316Z,5.40
2023-03-22T10:50:22.660Z,5.40
2023-03-22T10:52:57.490Z,5.50
2023-03-22T10:55:26.021Z,5.80
2023-03-22T10:58:09.262Z,4.40
2023-03-22T11:00:41.891Z,4.60
2023-03-22T11:03:35.279Z,5.30
2023-03-22T11:06:13.350Z,4.70
2023-03-22T11:08:51.453Z,5.80
2023-03-22T11:11:23.550Z,5.60
2023-03-22T11:14:14.168Z,4.40
2023-03-22T11:16:57.515Z,4.90
2023-03-22T11:19:29.025Z,4.70
2023-03-22T11:21:59.150Z,4.40
2023-03-22T11:24:31.028Z,4.90
2023-03-22T11:27:06.861Z,5.60
2023-03-22T11:29:44.692Z,4.80
2023-03-22T11:32:39.702Z,5.20
2023-03-22T11:35:15.543Z,6.00
2023-03-22T11:37:46.428Z,5.10
2023-03-22T11:40:19.254Z,4.90
2023-03-22T11:42:49.526Z,5.10
2023-03-22T11:45:25.568Z,5.10
2023-03-22T11:47:55.289Z,5.20
2023-03-22T11:50:36.277Z,5.00
2023-03-22T11:53:08.118Z,4.70
2023-03-22T11:55:37.176Z,4.70
2023-03-22T11:58:06.806Z,5.40
2023-03-22T12:00:38.461Z,5.20
2023-03-22T12:03:14.306Z,4.60
2023-03-22T12:05:45.851Z,4.80
2023-03-22T12:08:36.192Z,4.70
2023-03-22T12:11:25.924Z,4.80
2023-03-22T12:17:17.050Z,5.30
2023-03-22T12:20:10.006Z,5.20
2023-03-22T12:22:42.276Z,5.60
2023-03-22T12:25:34.140Z,5.60
2023-03-22T12:28:11.970Z,4.40
2023-03-22T12:30:53.366Z,4.70
2023-03-22T12:33:29.366Z,5.10
2023-03-22T12:36:00.732Z,4.70
2023-03-22T12:38:48.449Z,5.00
2023-03-22T12:41:22.393Z,5.40
2023-03-22T12:44:00.611Z,4.90
2023-03-22T12:46:35.047Z,4.60
2023-03-22T12:49:16.541Z,4.00
2023-03-22T12:51:46.697Z,4.80
2023-03-22T12:54:18.949Z,6.30
2023-03-22T12:56:47.972Z,4.20
2023-03-22T12:59:20.726Z,4.40
2023-03-22T13:01:58.998Z,4.70
2023-03-22T13:04:57.375Z,4.60
2023-03-22T13:07:31.613Z,5.10
2023-03-22T13:10:01.141Z,5.50
2023-03-22T13:12:34.521Z,4.90
2023-03-22T13:15:40.329Z,5.10
2023-03-22T13:18:33.582Z,4.60
2023-03-22T13:21:16.481Z,7.70
2023-03-22T13:24:19.727Z,4.50
2023-03-22T13:26:59.309Z,5.50
2023-03-22T13:29:38.216Z,4.40
2023-03-22T13:32:28.648Z,4.50
2023-03-22T13:34:57.208Z,5.10
2023-03-22T13:37:47.518Z,4.40
2023-03-22T13:40:29.913Z,4.30
2023-03-22T13:43:45.206Z,4.50
2023-03-22T13:46:29.973Z,4.70
2023-03-22T13:49:17.378Z,5.10
2023-03-22T13:51:46.046Z,5.20
2023-03-22T13:54:16.538Z,4.80
2023-03-22T13:56:44.682Z,5.00
2023-03-22T13:59:34.052Z,5.00
2023-03-22T14:02:16.026Z,5.80
2023-03-22T14:04:56.276Z,5.70
2023-03-22T14:07:31.027Z,5.30
2023-03-22T14:10:35.488Z,5.00
2023-03-22T14:13:28.269Z,5.40
2023-03-22T14:16:06.700Z,5.70
2023-03-22T14:18:39.683Z,5.50
2023-03-22T14:21:18.143Z,6.10
